createdAt,value
2022-11-28T00:00:52.949Z,1013.32
2022-11-28T00:01:53.299Z,1013.31
2022-11-28T00:02:53.629Z,1013.37
2022-11-28T00:03:53.817Z,1013.31
2022-11-28T00:04:55.989Z,1013.33
2022-11-28T00:05:56.179Z,1013.27
2022-11-28T00:06:54.669Z,1013.20
2022-11-28T00:07:55.016Z,1013.22
2022-11-28T00:08:55.149Z,1013.17
2022-11-28T00:09:57.333Z,1013.19
2022-11-28T00:10:55.740Z,1013.16
2022-11-28T00:11:56.041Z,1013.15
2022-11-28T00:12:56.328Z,1013.01
2022-11-28T00:13:56.625Z,1013.00
2022-11-28T00:14:58.794Z,1013.02
2022-11-28T00:15:57.192Z,1012.98
2022-11-28T00:16:59.342Z,1013.00
2022-11-28T00:17:57.716Z,1012.96
2022-11-28T00:19:00.828Z,1012.99
2022-11-28T00:20:01.019Z,1012.97
2022-11-28T00:20:59.450Z,1012.89
2022-11-28T00:21:59.610Z,1012.92
2022-11-28T00:23:01.948Z,1012.99
2022-11-28T00:24:00.189Z,1012.93
2022-11-28T00:25:01.530Z,1012.96
2022-11-28T00:26:00.768Z,1012.89
2022-11-28T00:27:02.089Z,1012.92
2022-11-28T00:28:00.607Z,1012.81
2022-11-28T00:29:01.766Z,1012.79
2022-11-28T00:30:02.173Z,1012.78
2022-11-28T00:31:02.332Z,1012.74
2022-11-28T00:32:02.795Z,1012.68
2022-11-28T00:33:03.976Z,1012.70
2022-11-28T00:34:04.206Z,1012.56
2022-11-28T00:35:03.490Z,1012.64
2022-11-28T00:36:03.647Z,1012.68
2022-11-28T00:37:04.061Z,1012.55
2022-11-28T00:38:03.423Z,1012.50
2022-11-28T00:39:04.102Z,1012.49
2022-11-28T00:40:03.946Z,1012.55
2022-11-28T00:41:04.234Z,1012.52
2022-11-28T00:42:04.535Z,1012.50
2022-11-28T00:43:04.830Z,1012.51
2022-11-28T00:44:07.008Z,1012.51
2022-11-28T00:45:07.203Z,1012.41
2022-11-28T00:46:07.459Z,1012.46
2022-11-28T00:47:06.954Z,1012.45
2022-11-28T00:48:06.256Z,1012.46
2022-11-28T00:49:08.433Z,1012.54
2022-11-28T00:50:09.580Z,1012.43
2022-11-28T00:51:07.087Z,1012.39
2022-11-28T00:52:07.377Z,1012.41
2022-11-28T00:53:07.668Z,1012.35
2022-11-28T00:54:08.870Z,1012.32
2022-11-28T00:55:08.227Z,1012.30
2022-11-28T00:56:09.440Z,1012.33
2022-11-28T00:57:10.597Z,1012.34
2022-11-28T00:58:10.793Z,1012.15
2022-11-28T00:59:10.989Z,1012.24
2022-11-28T01:00:11.672Z,1012.28
2022-11-28T01:01:11.923Z,1012.27
2022-11-28T01:02:12.084Z,1012.17
2022-11-28T01:03:12.234Z,1012.11
2022-11-28T01:04:12.909Z,1012.21
2022-11-28T01:05:11.273Z,1012.18
2022-11-28T01:06:11.566Z,1012.18
2022-11-28T01:07:13.785Z,1012.23
2022-11-28T01:08:13.940Z,1012.16
2022-11-28T01:09:14.137Z,1012.19
2022-11-28T01:10:14.328Z,1012.17
2022-11-28T01:11:15.011Z,1012.05
2022-11-28T01:12:14.649Z,1012.18
2022-11-28T01:13:13.637Z,1012.23
2022-11-28T01:14:15.828Z,1012.26
2022-11-28T01:15:14.195Z,1012.15
2022-11-28T01:16:14.524Z,1012.23
2022-11-28T01:17:16.654Z,1012.13
2022-11-28T01:18:15.032Z,1012.13
2022-11-28T01:19:17.201Z,1012.16
2022-11-28T01:20:15.572Z,1012.08
2022-11-28T01:21:17.739Z,1012.09
2022-11-28T01:22:16.116Z,1012.09
2022-11-28T01:23:17.280Z,1012.07
2022-11-28T01:24:18.496Z,1012.06
2022-11-28T01:25:17.081Z,1012.12
2022-11-28T01:26:19.273Z,1012.09
2022-11-28T01:27:19.457Z,1012.14
2022-11-28T01:28:17.956Z,1012.17
2022-11-28T01:29:18.249Z,1012.13
2022-11-28T01:30:18.548Z,1012.14
2022-11-28T01:31:20.789Z,1012.19
2022-11-28T01:32:19.164Z,1012.18
2022-11-28T01:33:19.450Z,1012.13
2022-11-28T01:34:19.746Z,1012.17
2022-11-28T01:35:21.933Z,1012.14
2022-11-28T01:36:20.372Z,1012.11
2022-11-28T01:37:20.538Z,1012.09
2022-11-28T01:38:22.815Z,1012.07
2022-11-28T01:39:21.061Z,1012.03
2022-11-28T01:40:21.363Z,1012.03
2022-11-28T01:41:23.548Z,1012.05
2022-11-28T01:42:21.915Z,1012.10
2022-11-28T01:43:24.089Z,1012.07
2022-11-28T01:44:22.453Z,1012.07
2022-11-28T01:45:22.755Z,1012.07
2022-11-28T01:46:24.981Z,1012.06
2022-11-28T01:47:23.387Z,1012.06
2022-11-28T01:48:23.559Z,1012.08
2022-11-28T01:49:25.733Z,1011.99
2022-11-28T01:50:24.103Z,1012.00
2022-11-28T01:51:26.290Z,1012.00
2022-11-28T01:52:24.662Z,1011.95
2022-11-28T01:53:24.945Z,1011.95
2022-11-28T01:54:27.131Z,1011.96
2022-11-28T01:55:27.313Z,1011.97
2022-11-28T01:56:25.804Z,1011.89
2022-11-28T01:57:26.102Z,1011.92
2022-11-28T01:58:26.384Z,1011.89
2022-11-28T01:59:28.546Z,1011.96
2022-11-28T02:00:28.734Z,1011.98
2022-11-28T02:01:28.389Z,1011.94
2022-11-28T02:02:29.469Z,1011.91
2022-11-28T02:03:27.800Z,1011.96
2022-11-28T02:04:29.984Z,1011.93
2022-11-28T02:05:28.354Z,1011.87
2022-11-28T02:06:28.645Z,1011.90
2022-11-28T02:07:28.963Z,1011.83
2022-11-28T02:08:29.233Z,1011.77
2022-11-28T02:09:31.435Z,1011.78
2022-11-28T02:10:29.814Z,1011.78
2022-11-28T02:11:31.096Z,1011.79
2022-11-28T02:12:30.443Z,1011.75
2022-11-28T02:13:32.636Z,1011.71
2022-11-28T02:14:32.831Z,1011.64
2022-11-28T02:15:31.325Z,1011.70
2022-11-28T02:16:33.558Z,1011.61
2022-11-28T02:17:31.901Z,1011.66
2022-11-28T02:18:32.198Z,1011.61
2022-11-28T02:19:34.375Z,1011.61
2022-11-28T02:20:33.599Z,1011.57
2022-11-28T02:21:33.064Z,1011.50
2022-11-28T02:22:33.361Z,1011.49
2022-11-28T02:23:33.686Z,1011.42
2022-11-28T02:24:35.869Z,1011.43
2022-11-28T02:25:34.236Z,1011.48
2022-11-28T02:26:34.529Z,1011.51
2022-11-28T02:27:37.682Z,1011.46
2022-11-28T02:28:37.051Z,1011.43
2022-11-28T02:29:35.294Z,1011.39
2022-11-28T02:30:38.431Z,1011.32
2022-11-28T02:31:38.338Z,1011.34
2022-11-28T02:32:37.052Z,1011.24
2022-11-28T02:33:37.368Z,1011.25
2022-11-28T02:34:37.626Z,1011.22
2022-11-28T02:35:38.905Z,1011.23
2022-11-28T02:36:39.095Z,1011.20
2022-11-28T02:37:38.552Z,1011.16
2022-11-28T02:38:38.526Z,1011.14
2022-11-28T02:39:38.939Z,1011.13
2022-11-28T02:40:40.323Z,1011.08
2022-11-28T02:41:40.495Z,1011.04
2022-11-28T02:42:40.695Z,1011.03
2022-11-28T02:43:40.890Z,1011.05
2022-11-28T02:44:39.923Z,1011.01
2022-11-28T02:45:40.806Z,1011.06
2022-11-28T02:46:40.344Z,1011.06
2022-11-28T02:47:42.465Z,1010.99
2022-11-28T02:48:40.842Z,1011.02
2022-11-28T02:49:43.026Z,1011.04
2022-11-28T02:50:43.222Z,1011.00
2022-11-28T02:51:42.660Z,1011.01
2022-11-28T02:52:42.957Z,1010.98
2022-11-28T02:53:42.295Z,1010.93
2022-11-28T02:54:42.807Z,1010.92
2022-11-28T02:55:42.918Z,1010.90
2022-11-28T02:56:44.125Z,1010.87
2022-11-28T02:57:44.311Z,1010.92
2022-11-28T02:58:43.780Z,1010.90
2022-11-28T02:59:44.068Z,1010.88
2022-11-28T03:00:46.347Z,1010.87
2022-11-28T03:01:46.477Z,1010.85
2022-11-28T03:02:46.688Z,1010.77
2022-11-28T03:03:47.314Z,1010.74
2022-11-28T03:04:47.497Z,1010.76
2022-11-28T03:05:47.687Z,1010.76
2022-11-28T03:06:47.878Z,1010.68
2022-11-28T03:07:48.601Z,1010.75
2022-11-28T03:08:48.762Z,1010.73
2022-11-28T03:09:47.135Z,1010.62
2022-11-28T03:10:49.319Z,1010.68
2022-11-28T03:11:49.507Z,1010.63
2022-11-28T03:12:49.701Z,1010.67
2022-11-28T03:13:49.989Z,1010.61
2022-11-28T03:14:50.557Z,1010.61
2022-11-28T03:15:50.783Z,1010.58
2022-11-28T03:16:50.928Z,1010.55
2022-11-28T03:17:49.541Z,1010.63
2022-11-28T03:18:49.824Z,1010.57
2022-11-28T03:19:50.102Z,1010.62
2022-11-28T03:20:52.061Z,1010.59
2022-11-28T03:21:53.239Z,1010.68
2022-11-28T03:22:50.995Z,1010.60
2022-11-28T03:23:51.282Z,1010.63
2022-11-28T03:24:51.569Z,1010.55
2022-11-28T03:25:53.758Z,1010.56
2022-11-28T03:26:53.952Z,1010.55
2022-11-28T03:27:52.429Z,1010.52
2022-11-28T03:28:52.723Z,1010.51
2022-11-28T03:29:53.013Z,1010.48
2022-11-28T03:30:53.305Z,1010.50
2022-11-28T03:31:54.571Z,1010.51
2022-11-28T03:32:53.892Z,1010.52
2022-11-28T03:33:54.191Z,1010.47
2022-11-28T03:34:54.472Z,1010.44
2022-11-28T03:35:54.764Z,1010.56
2022-11-28T03:36:56.944Z,1010.58
2022-11-28T03:37:55.303Z,1010.66
2022-11-28T03:38:55.592Z,1010.68
2022-11-28T03:39:55.881Z,1010.75
2022-11-28T03:40:58.078Z,1010.75
2022-11-28T03:41:58.242Z,1010.74
2022-11-28T03:42:56.733Z,1010.74
2022-11-28T03:43:58.917Z,1010.80
2022-11-28T03:44:57.290Z,1010.68
2022-11-28T03:45:59.473Z,1010.72
2022-11-28T03:46:59.730Z,1010.74
2022-11-28T03:47:58.187Z,1010.71
2022-11-28T03:48:58.474Z,1010.52
2022-11-28T03:50:00.656Z,1010.66
2022-11-28T03:50:59.038Z,1010.52
2022-11-28T03:52:01.213Z,1010.61
2022-11-28T03:53:01.407Z,1010.59
2022-11-28T03:54:01.594Z,1010.55
2022-11-28T03:55:01.783Z,1010.49
2022-11-28T03:56:00.588Z,1010.52
2022-11-28T03:57:02.701Z,1010.46
2022-11-28T03:58:01.064Z,1010.41
2022-11-28T03:59:01.359Z,1010.37
2022-11-28T04:00:03.556Z,1010.37
2022-11-28T04:01:01.994Z,1010.38
2022-11-28T04:02:04.128Z,1010.38
2022-11-28T04:03:02.567Z,1010.46
2022-11-28T04:04:02.838Z,1010.41
2022-11-28T04:05:03.113Z,1010.40
2022-11-28T04:06:05.315Z,1010.38
2022-11-28T04:07:05.515Z,1010.36
2022-11-28T04:08:05.746Z,1010.38
2022-11-28T04:09:04.332Z,1010.43
2022-11-28T04:10:04.621Z,1010.43
2022-11-28T04:11:04.918Z,1010.42
2022-11-28T04:12:05.211Z,1010.48
2022-11-28T04:13:07.386Z,1010.47
2022-11-28T04:14:07.573Z,1010.54
2022-11-28T04:15:06.183Z,1010.49
2022-11-28T04:16:07.912Z,1010.55
2022-11-28T04:17:08.537Z,1010.51
2022-11-28T04:18:08.721Z,1010.46
2022-11-28T04:19:08.905Z,1010.46
2022-11-28T04:20:09.099Z,1010.47
2022-11-28T04:21:09.771Z,1010.49
2022-11-28T04:22:09.084Z,1010.44
2022-11-28T04:23:10.337Z,1010.41
2022-11-28T04:24:10.518Z,1010.37
2022-11-28T04:25:09.825Z,1010.35
2022-11-28T04:26:10.239Z,1010.40
2022-11-28T04:27:10.395Z,1010.44
2022-11-28T04:28:09.873Z,1010.40
2022-11-28T04:29:12.054Z,1010.43
2022-11-28T04:30:12.281Z,1010.45
2022-11-28T04:31:12.465Z,1010.47
2022-11-28T04:32:12.640Z,1010.52
2022-11-28T04:33:13.437Z,1010.48
2022-11-28T04:34:13.527Z,1010.52
2022-11-28T04:35:13.711Z,1010.41
2022-11-28T04:36:13.898Z,1010.50
2022-11-28T04:37:14.584Z,1010.45
2022-11-28T04:38:14.785Z,1010.47
2022-11-28T04:39:13.264Z,1010.51
2022-11-28T04:40:15.466Z,1010.51
2022-11-28T04:41:15.663Z,1010.58
2022-11-28T04:42:14.158Z,1010.52
2022-11-28T04:43:16.342Z,1010.54
2022-11-28T04:44:14.721Z,1010.51
2022-11-28T04:45:16.916Z,1010.54
2022-11-28T04:46:15.393Z,1010.54
2022-11-28T04:47:15.555Z,1010.54
2022-11-28T04:48:17.747Z,1010.44
2022-11-28T04:49:17.921Z,1010.46
2022-11-28T04:50:18.484Z,1010.45
2022-11-28T04:51:18.304Z,1010.45
2022-11-28T04:52:18.995Z,1010.46
2022-11-28T04:53:19.184Z,1010.43
2022-11-28T04:54:17.669Z,1010.43
2022-11-28T04:55:17.954Z,1010.37
2022-11-28T04:56:18.248Z,1010.43
2022-11-28T04:57:18.523Z,1010.41
2022-11-28T04:58:20.706Z,1010.48
2022-11-28T04:59:19.066Z,1010.40
2022-11-28T05:00:21.259Z,1010.49
2022-11-28T05:01:21.520Z,1010.50
2022-11-28T05:02:21.683Z,1010.41
2022-11-28T05:03:21.830Z,1010.47
2022-11-28T05:04:21.990Z,1010.46
2022-11-28T05:05:24.159Z,1010.44
2022-11-28T05:06:21.051Z,1010.50
2022-11-28T05:07:23.390Z,1010.43
2022-11-28T05:08:23.667Z,1010.42
2022-11-28T05:09:21.917Z,1010.35
2022-11-28T05:10:24.081Z,1010.40
2022-11-28T05:11:22.437Z,1010.37
2022-11-28T05:12:24.793Z,1010.36
2022-11-28T05:13:23.035Z,1010.33
2022-11-28T05:14:25.220Z,1010.35
2022-11-28T05:15:23.582Z,1010.42
2022-11-28T05:16:25.813Z,1010.37
2022-11-28T05:17:24.164Z,1010.39
2022-11-28T05:18:26.353Z,1010.34
2022-11-28T05:19:24.729Z,1010.34
2022-11-28T05:20:25.021Z,1010.38
2022-11-28T05:21:27.214Z,1010.47
2022-11-28T05:22:25.602Z,1010.49
2022-11-28T05:23:27.786Z,1010.44
2022-11-28T05:24:31.949Z,1010.48
2022-11-28T05:25:27.468Z,1010.47
2022-11-28T05:26:28.656Z,1010.41
2022-11-28T05:27:27.020Z,1010.34
2022-11-28T05:28:27.314Z,1010.41
2022-11-28T05:29:27.598Z,1010.36
2022-11-28T05:30:27.890Z,1010.47
2022-11-28T05:31:30.110Z,1010.44
2022-11-28T05:32:28.453Z,1010.42
2022-11-28T05:33:28.743Z,1010.43
2022-11-28T05:34:29.049Z,1010.49
2022-11-28T05:35:31.229Z,1010.48
2022-11-28T05:36:31.396Z,1010.47
2022-11-28T05:37:29.893Z,1010.48
2022-11-28T05:38:30.182Z,1010.53
2022-11-28T05:39:30.470Z,1010.47
2022-11-28T05:40:32.681Z,1010.56
2022-11-28T05:41:32.857Z,1010.54
2022-11-28T05:42:32.323Z,1010.44
2022-11-28T05:43:31.668Z,1010.45
2022-11-28T05:44:31.973Z,1010.46
2022-11-28T05:45:34.184Z,1010.44
2022-11-28T05:46:34.351Z,1010.40
2022-11-28T05:47:34.533Z,1010.40
2022-11-28T05:48:33.148Z,1010.37
2022-11-28T05:49:35.439Z,1010.36
2022-11-28T05:50:37.081Z,1010.44
2022-11-28T05:51:35.010Z,1010.39
2022-11-28T05:52:34.260Z,1010.39
2022-11-28T05:53:34.569Z,1010.32
2022-11-28T05:54:36.746Z,1010.33
2022-11-28T05:55:35.114Z,1010.37
2022-11-28T05:56:39.505Z,1010.34
2022-11-28T05:57:38.584Z,1010.26
2022-11-28T05:58:35.970Z,1010.36
2022-11-28T05:59:36.254Z,1010.37
2022-11-28T06:00:36.566Z,1010.31
2022-11-28T06:01:36.892Z,1010.37
2022-11-28T06:02:40.036Z,1010.36
2022-11-28T06:03:37.420Z,1010.36
2022-11-28T06:04:40.628Z,1010.31
2022-11-28T06:05:42.662Z,1010.27
2022-11-28T06:06:41.176Z,1010.24
2022-11-28T06:07:40.435Z,1010.24
2022-11-28T06:08:38.905Z,1010.17
2022-11-28T06:09:39.194Z,1010.15
2022-11-28T06:10:39.504Z,1010.17
2022-11-28T06:11:39.808Z,1010.22
2022-11-28T06:12:40.115Z,1010.15
2022-11-28T06:13:42.293Z,1010.22
2022-11-28T06:14:40.662Z,1010.25
2022-11-28T06:15:40.962Z,1010.29
2022-11-28T06:16:41.309Z,1010.33
2022-11-28T06:17:44.408Z,1010.23
2022-11-28T06:18:44.597Z,1010.25
2022-11-28T06:19:43.972Z,1010.25
2022-11-28T06:20:43.326Z,1010.28
2022-11-28T06:21:43.489Z,1010.33
2022-11-28T06:22:43.642Z,1010.30
2022-11-28T06:23:45.046Z,1010.29
2022-11-28T06:24:46.680Z,1010.26
2022-11-28T06:25:44.636Z,1010.33
2022-11-28T06:26:44.802Z,1010.32
2022-11-28T06:27:45.211Z,1010.34
2022-11-28T06:28:45.371Z,1010.33
2022-11-28T06:29:46.769Z,1010.37
2022-11-28T06:30:45.146Z,1010.32
2022-11-28T06:31:45.516Z,1010.33
2022-11-28T06:32:45.784Z,1010.32
2022-11-28T06:33:46.084Z,1010.34
2022-11-28T06:34:48.283Z,1010.32
2022-11-28T06:35:46.645Z,1010.31
2022-11-28T06:36:47.917Z,1010.26
2022-11-28T06:37:47.269Z,1010.37
2022-11-28T06:38:49.455Z,1010.33
2022-11-28T06:39:49.643Z,1010.29
2022-11-28T06:40:49.800Z,1010.34
2022-11-28T06:41:49.241Z,1010.31
2022-11-28T06:42:50.616Z,1010.35
2022-11-28T06:43:50.808Z,1010.32
2022-11-28T06:44:49.325Z,1010.42
2022-11-28T06:45:51.659Z,1010.41
2022-11-28T06:46:51.713Z,1010.31
2022-11-28T06:47:50.209Z,1010.34
2022-11-28T06:48:52.439Z,1010.30
2022-11-28T06:49:52.624Z,1010.39
2022-11-28T06:50:52.826Z,1010.40
2022-11-28T06:51:53.012Z,1010.34
2022-11-28T06:52:53.704Z,1010.44
2022-11-28T06:53:53.885Z,1010.49
2022-11-28T06:54:54.063Z,1010.43
2022-11-28T06:55:54.207Z,1010.44
2022-11-28T06:56:54.882Z,1010.37
2022-11-28T06:57:55.067Z,1010.45
2022-11-28T06:58:55.236Z,1010.38
2022-11-28T06:59:55.392Z,1010.36
2022-11-28T07:00:56.165Z,1010.34
2022-11-28T07:01:56.356Z,1010.31
2022-11-28T07:02:56.520Z,1010.34
2022-11-28T07:03:54.863Z,1010.43
2022-11-28T07:04:55.189Z,1010.37
2022-11-28T07:05:55.503Z,1010.40
2022-11-28T07:06:57.687Z,1010.36
2022-11-28T07:07:56.902Z,1010.38
2022-11-28T07:08:58.016Z,1010.39
2022-11-28T07:09:56.664Z,1010.35
2022-11-28T07:10:58.825Z,1010.39
2022-11-28T07:11:59.007Z,1010.39
2022-11-28T07:13:03.782Z,1010.41
2022-11-28T07:13:58.755Z,1010.41
2022-11-28T07:14:58.020Z,1010.41
2022-11-28T07:16:00.202Z,1010.41
2022-11-28T07:16:58.631Z,1010.40
2022-11-28T07:18:00.801Z,1010.37
2022-11-28T07:18:59.197Z,1010.39
2022-11-28T07:20:01.391Z,1010.40
2022-11-28T07:20:59.791Z,1010.36
2022-11-28T07:22:00.135Z,1010.38
2022-11-28T07:23:02.301Z,1010.38
2022-11-28T07:24:00.723Z,1010.34
2022-11-28T07:25:01.054Z,1010.37
2022-11-28T07:26:01.390Z,1010.38
2022-11-28T07:27:01.722Z,1010.35
2022-11-28T07:28:03.904Z,1010.28
2022-11-28T07:29:02.310Z,1010.42
2022-11-28T07:30:03.695Z,1010.46
2022-11-28T07:31:04.905Z,1010.47
2022-11-28T07:32:03.370Z,1010.50
2022-11-28T07:33:05.500Z,1010.45
2022-11-28T07:34:03.902Z,1010.48
2022-11-28T07:35:04.247Z,1010.43
2022-11-28T07:36:06.437Z,1010.52
2022-11-28T07:37:04.844Z,1010.52
2022-11-28T07:38:07.020Z,1010.57
2022-11-28T07:39:05.444Z,1010.57
2022-11-28T07:40:07.616Z,1010.55
2022-11-28T07:41:06.029Z,1010.56
2022-11-28T07:42:08.212Z,1010.58
2022-11-28T07:43:06.622Z,1010.58
2022-11-28T07:44:06.954Z,1010.61
2022-11-28T07:45:09.134Z,1010.58
2022-11-28T07:46:07.606Z,1010.56
2022-11-28T07:47:09.749Z,1010.57
2022-11-28T07:48:08.028Z,1010.54
2022-11-28T07:49:08.366Z,1010.51
2022-11-28T07:50:08.711Z,1010.52
2022-11-28T07:51:09.044Z,1010.55
2022-11-28T07:52:11.224Z,1010.58
2022-11-28T07:53:09.627Z,1010.54
2022-11-28T07:54:09.971Z,1010.54
2022-11-28T07:55:10.321Z,1010.46
2022-11-28T07:56:10.653Z,1010.51
2022-11-28T07:57:13.824Z,1010.55
2022-11-28T07:58:11.245Z,1010.53
2022-11-28T07:59:14.894Z,1010.53
2022-11-28T08:00:14.574Z,1010.53
2022-11-28T08:01:12.892Z,1010.57
2022-11-28T08:02:13.373Z,1010.62
2022-11-28T08:03:13.473Z,1010.53
2022-11-28T08:04:14.829Z,1010.57
2022-11-28T08:05:13.159Z,1010.52
2022-11-28T08:06:15.298Z,1010.56
2022-11-28T08:07:15.636Z,1010.53
2022-11-28T08:08:15.670Z,1010.60
2022-11-28T08:09:14.202Z,1010.70
2022-11-28T08:10:14.527Z,1010.64
2022-11-28T08:11:14.850Z,1010.68
2022-11-28T08:12:18.015Z,1010.67
2022-11-28T08:13:18.205Z,1010.72
2022-11-28T08:14:15.761Z,1010.75
2022-11-28T08:15:18.887Z,1010.69
2022-11-28T08:16:16.374Z,1010.60
2022-11-28T08:17:18.527Z,1010.73
2022-11-28T08:18:18.711Z,1010.68
2022-11-28T08:19:17.123Z,1010.64
2022-11-28T08:20:18.575Z,1010.68
2022-11-28T08:21:18.651Z,1010.72
2022-11-28T08:22:19.908Z,1010.68
2022-11-28T08:23:20.083Z,1010.71
2022-11-28T08:24:18.629Z,1010.75
2022-11-28T08:25:18.882Z,1010.73
2022-11-28T08:26:23.903Z,1010.78
2022-11-28T08:27:19.342Z,1010.74
2022-11-28T08:28:20.556Z,1010.72
2022-11-28T08:29:19.825Z,1010.72
2022-11-28T08:30:20.056Z,1010.69
2022-11-28T08:31:21.317Z,1010.80
2022-11-28T08:32:21.648Z,1010.75
2022-11-28T08:33:22.886Z,1010.71
2022-11-28T08:34:22.010Z,1010.83
2022-11-28T08:35:22.371Z,1010.83
2022-11-28T08:36:21.662Z,1010.76
2022-11-28T08:37:23.859Z,1010.83
2022-11-28T08:38:22.606Z,1010.84
2022-11-28T08:39:24.489Z,1010.79
2022-11-28T08:40:24.679Z,1010.77
2022-11-28T08:41:24.843Z,1010.80
2022-11-28T08:42:23.263Z,1010.79
2022-11-28T08:43:25.472Z,1010.75
2022-11-28T08:44:23.893Z,1010.72
2022-11-28T08:45:26.091Z,1010.78
2022-11-28T08:46:26.324Z,1010.73
2022-11-28T08:47:26.443Z,1010.73
2022-11-28T08:48:25.668Z,1010.79
2022-11-28T08:49:26.850Z,1010.75
2022-11-28T08:50:27.556Z,1010.69
2022-11-28T08:51:27.746Z,1010.70
2022-11-28T08:52:27.907Z,1010.71
2022-11-28T08:53:28.064Z,1010.71
2022-11-28T08:54:28.787Z,1010.67
2022-11-28T08:55:32.404Z,1010.77
2022-11-28T08:56:30.276Z,1010.75
2022-11-28T08:57:27.701Z,1010.75
2022-11-28T08:58:29.895Z,1010.73
2022-11-28T08:59:30.082Z,1010.68
2022-11-28T09:00:28.633Z,1010.71
2022-11-28T09:01:30.865Z,1010.72
2022-11-28T09:02:30.989Z,1010.72
2022-11-28T09:03:29.577Z,1010.78
2022-11-28T09:04:31.697Z,1010.70
2022-11-28T09:05:30.113Z,1010.75
2022-11-28T09:06:30.467Z,1010.73
2022-11-28T09:07:32.790Z,1010.78
2022-11-28T09:08:30.965Z,1010.79
2022-11-28T09:09:33.160Z,1010.74
2022-11-28T09:10:31.456Z,1010.69
2022-11-28T09:11:31.792Z,1010.70
2022-11-28T09:12:33.972Z,1010.65
2022-11-28T09:13:32.258Z,1010.74
2022-11-28T09:14:34.452Z,1010.69
2022-11-28T09:15:32.879Z,1010.73
2022-11-28T09:16:35.128Z,1010.68
2022-11-28T09:17:33.385Z,1010.63
2022-11-28T09:18:33.735Z,1010.72
2022-11-28T09:19:33.966Z,1010.70
2022-11-28T09:20:36.143Z,1010.64
2022-11-28T09:21:36.329Z,1010.74
2022-11-28T09:22:36.517Z,1010.70
2022-11-28T09:23:35.065Z,1010.72
2022-11-28T09:24:37.248Z,1010.67
2022-11-28T09:25:35.517Z,1010.75
2022-11-28T09:26:37.709Z,1010.72
2022-11-28T09:27:37.892Z,1010.73
2022-11-28T09:28:36.432Z,1010.75
2022-11-28T09:29:36.781Z,1010.77
2022-11-28T09:30:39.042Z,1010.76
2022-11-28T09:31:37.428Z,1010.74
2022-11-28T09:32:37.660Z,1010.74
2022-11-28T09:33:37.881Z,1010.86
2022-11-28T09:34:38.243Z,1010.82
2022-11-28T09:35:40.423Z,1010.83
2022-11-28T09:36:38.722Z,1010.87
2022-11-28T09:37:38.952Z,1010.87
2022-11-28T09:38:41.145Z,1010.88
2022-11-28T09:39:50.613Z,1010.89
2022-11-28T09:40:42.621Z,1010.84
2022-11-28T09:41:41.803Z,1010.85
2022-11-28T09:42:41.989Z,1010.85
2022-11-28T09:43:40.660Z,1010.88
2022-11-28T09:44:40.889Z,1010.87
2022-11-28T09:45:41.176Z,1010.90
2022-11-28T09:46:41.380Z,1010.96
2022-11-28T09:47:43.574Z,1010.93
2022-11-28T09:48:41.870Z,1010.90
2022-11-28T09:49:42.503Z,1010.96
2022-11-28T09:50:42.500Z,1010.92
2022-11-28T09:51:44.682Z,1010.84
2022-11-28T09:52:43.109Z,1010.90
2022-11-28T09:53:43.278Z,1010.89
2022-11-28T09:54:43.513Z,1010.88
2022-11-28T09:55:43.742Z,1010.85
2022-11-28T09:56:45.987Z,1010.90
2022-11-28T09:57:44.235Z,1010.87
2022-11-28T09:58:44.467Z,1010.93
2022-11-28T09:59:46.660Z,1010.90
2022-11-28T10:00:45.065Z,1010.88
2022-11-28T10:01:45.261Z,1010.83
2022-11-28T10:02:45.493Z,1010.84
2022-11-28T10:03:45.747Z,1010.88
2022-11-28T10:04:47.953Z,1010.95
2022-11-28T10:05:48.095Z,1010.94
2022-11-28T10:06:46.515Z,1010.94
2022-11-28T10:07:49.023Z,1010.95
2022-11-28T10:08:49.897Z,1010.96
2022-11-28T10:09:49.054Z,1010.97
2022-11-28T10:10:49.426Z,1010.97
2022-11-28T10:11:49.322Z,1010.98
2022-11-28T10:12:51.501Z,1010.97
2022-11-28T10:14:07.306Z,1010.95
2022-11-28T10:14:49.669Z,1010.95
2022-11-28T10:15:50.870Z,1011.01
2022-11-28T10:16:51.153Z,1011.00
2022-11-28T10:17:49.561Z,1010.93
2022-11-28T10:18:50.865Z,1010.92
2022-11-28T10:19:55.003Z,1011.00
2022-11-28T10:20:52.322Z,1010.97
2022-11-28T10:21:55.084Z,1010.95
2022-11-28T10:22:52.064Z,1010.95
2022-11-28T10:23:53.243Z,1011.00
2022-11-28T10:24:51.676Z,1010.97
2022-11-28T10:25:54.818Z,1011.01
2022-11-28T10:26:52.250Z,1010.99
2022-11-28T10:27:53.402Z,1010.94
2022-11-28T10:28:54.686Z,1010.99
2022-11-28T10:29:53.981Z,1010.96
2022-11-28T10:30:55.366Z,1010.83
2022-11-28T10:31:54.554Z,1010.94
2022-11-28T10:32:54.916Z,1010.88
2022-11-28T10:33:56.146Z,1010.86
2022-11-28T10:34:55.290Z,1010.89
2022-11-28T10:35:56.638Z,1010.89
2022-11-28T10:36:55.870Z,1010.91
2022-11-28T10:37:56.228Z,1010.89
2022-11-28T10:38:55.631Z,1010.89
2022-11-28T10:39:55.869Z,1010.88
2022-11-28T10:40:58.054Z,1010.88
2022-11-28T10:41:57.343Z,1010.88
2022-11-28T10:42:56.639Z,1010.89
2022-11-28T10:43:56.855Z,1010.98
2022-11-28T10:44:58.055Z,1010.85
2022-11-28T10:45:59.302Z,1010.92
2022-11-28T10:46:58.427Z,1010.91
2022-11-28T10:48:07.451Z,1010.83
2022-11-28T10:48:59.306Z,1010.94
2022-11-28T10:49:58.571Z,1010.94
2022-11-28T10:50:59.868Z,1010.93
2022-11-28T10:52:01.102Z,1010.86
2022-11-28T10:52:59.412Z,1010.87
2022-11-28T10:53:59.635Z,1010.88
2022-11-28T10:54:59.864Z,1010.88
2022-11-28T10:56:00.098Z,1010.93
2022-11-28T10:57:02.277Z,1010.82
2022-11-28T10:58:00.694Z,1010.88
2022-11-28T10:59:00.925Z,1010.91
2022-11-28T11:00:02.118Z,1010.87
2022-11-28T11:01:01.438Z,1010.89
2022-11-28T11:02:01.660Z,1010.99
2022-11-28T11:03:01.885Z,1010.88
2022-11-28T11:04:02.108Z,1010.91
2022-11-28T11:05:03.352Z,1010.91
2022-11-28T11:06:04.527Z,1010.89
2022-11-28T11:07:11.382Z,1010.90
2022-11-28T11:08:05.920Z,1010.90
2022-11-28T11:09:05.058Z,1010.90
2022-11-28T11:10:05.239Z,1010.93
2022-11-28T11:11:05.933Z,1010.96
2022-11-28T11:12:06.112Z,1010.94
2022-11-28T11:13:04.674Z,1010.94
2022-11-28T11:14:06.865Z,1010.92
2022-11-28T11:15:07.056Z,1010.93
2022-11-28T11:16:05.630Z,1010.90
2022-11-28T11:17:05.809Z,1010.90
2022-11-28T11:18:06.040Z,1010.91
2022-11-28T11:19:08.233Z,1010.86
2022-11-28T11:20:06.537Z,1010.91
2022-11-28T11:21:08.731Z,1010.91
2022-11-28T11:22:07.025Z,1010.91
2022-11-28T11:23:09.201Z,1010.84
2022-11-28T11:24:07.501Z,1010.89
2022-11-28T11:25:07.735Z,1010.86
2022-11-28T11:26:09.913Z,1010.88
2022-11-28T11:27:08.240Z,1010.86
2022-11-28T11:28:08.438Z,1010.89
2022-11-28T11:29:11.831Z,1010.91
2022-11-28T11:30:11.082Z,1010.88
2022-11-28T11:31:10.827Z,1010.86
2022-11-28T11:32:09.601Z,1010.80
2022-11-28T11:33:11.792Z,1010.95
2022-11-28T11:34:11.987Z,1010.85
2022-11-28T11:35:10.415Z,1010.84
2022-11-28T11:36:10.647Z,1010.86
2022-11-28T11:37:10.871Z,1010.83
2022-11-28T11:38:13.063Z,1010.85
2022-11-28T11:39:11.482Z,1010.81
2022-11-28T11:40:11.710Z,1010.84
2022-11-28T11:41:13.912Z,1010.93
2022-11-28T11:42:12.198Z,1010.89
2022-11-28T11:43:14.450Z,1010.92
2022-11-28T11:44:14.640Z,1010.89
2022-11-28T11:45:13.060Z,1010.95
2022-11-28T11:46:13.384Z,1010.90
2022-11-28T11:47:13.851Z,1010.91
2022-11-28T11:48:15.799Z,1010.89
2022-11-28T11:49:14.241Z,1010.94
2022-11-28T11:50:14.470Z,1010.97
2022-11-28T11:51:14.699Z,1010.94
2022-11-28T11:52:14.927Z,1010.93
2022-11-28T11:53:17.111Z,1010.93
2022-11-28T11:54:17.287Z,1010.94
2022-11-28T11:55:15.735Z,1010.92
2022-11-28T11:56:17.925Z,1010.92
2022-11-28T11:57:32.591Z,1010.94
2022-11-28T11:58:19.314Z,1010.89
2022-11-28T11:59:18.500Z,1010.86
2022-11-28T12:00:17.178Z,1010.91
2022-11-28T12:01:17.418Z,1010.95
2022-11-28T12:02:19.620Z,1010.92
2022-11-28T12:03:18.065Z,1011.02
2022-11-28T12:04:43.634Z,1010.96
2022-11-28T12:05:19.458Z,1010.99
2022-11-28T12:06:20.629Z,1010.93
2022-11-28T12:07:19.102Z,1010.90
2022-11-28T12:08:22.253Z,1010.91
2022-11-28T12:09:21.440Z,1010.99